KRNO

Reno / Tahoe International Airport

Reno, Nevada, USA
METAR KRNO 231055Z 21003KT 10SM BKN080 12/08 A2993 RMK AO2 SLP093 T01220078
Observed Flight Rules
May-23 @ 10:55 UTC (10 minutes ago) Visual Flight Rules
Wind Visibility Clouds
210° at 3 knots 10 miles
  • Broken at 8,000' AGL
Temperatures Readings
Current 12°C / 54°F
Dewpoint 8°C / 46°F
Humidity 77%
Altimeter 29.93" Hg
Pressure 1009.3 hPa
Elevation 1342
METAR KRNO 231055Z 21003KT 10SM BKN080 12/08 A2993 RMK AO2 SLP093 T01220078
Observed Flight Rules
May-23 @ 10:55 UTC
(10 minutes ago)
VFR
Wind Visibility
210° at 3 knots 10 miles
Clouds
  • Broken at 8,000' AGL
Temperature Dewpoint
12°C / 54°F 8°C / 46°F
Humidity Altimeter Pressure
77% 29.93" Hg 1009.3 hPa